sensor_id;sensor_type;location;lat;lon;timestamp;P1;durP1;ratioP1;P2;durP2;ratioP2
17987;SDS011;9119;50.932;5.342;2023-04-29T00:02:00;118.07;;;51.20;;
17987;SDS011;9119;50.932;5.342;2023-04-29T00:04:26;109.30;;;46.20;;
17987;SDS011;9119;50.932;5.342;2023-04-29T00:06:52;100.30;;;39.37;;
17987;SDS011;9119;50.932;5.342;2023-04-29T00:09:18;104.23;;;46.47;;
17987;SDS011;9119;50.932;5.342;2023-04-29T00:11:43;127.47;;;53.53;;
17987;SDS011;9119;50.932;5.342;2023-04-29T00:14:11;105.97;;;43.50;;
17987;SDS011;9119;50.932;5.342;2023-04-29T00:16:36;125.43;;;53.33;;
17987;SDS011;9119;50.932;5.342;2023-04-29T00:19:02;95.67;;;39.00;;
17987;SDS011;9119;50.932;5.342;2023-04-29T00:21:28;78.80;;;34.53;;
17987;SDS011;9119;50.932;5.342;2023-04-29T00:23:54;87.73;;;39.87;;
17987;SDS011;9119;50.932;5.342;2023-04-29T00:26:20;80.90;;;32.80;;
17987;SDS011;9119;50.932;5.342;2023-04-29T00:28:46;80.87;;;33.57;;
17987;SDS011;9119;50.932;5.342;2023-04-29T00:31:11;73.03;;;30.43;;
17987;SDS011;9119;50.932;5.342;2023-04-29T00:33:37;83.77;;;34.93;;
17987;SDS011;9119;50.932;5.342;2023-04-29T00:36:04;80.77;;;36.03;;
17987;SDS011;9119;50.932;5.342;2023-04-29T00:38:30;86.07;;;34.90;;
17987;SDS011;9119;50.932;5.342;2023-04-29T00:40:56;77.37;;;33.30;;
17987;SDS011;9119;50.932;5.342;2023-04-29T00:43:22;74.37;;;31.03;;
17987;SDS011;9119;50.932;5.342;2023-04-29T00:45:48;73.70;;;30.07;;
17987;SDS011;9119;50.932;5.342;2023-04-29T00:48:14;87.57;;;39.27;;
17987;SDS011;9119;50.932;5.342;2023-04-29T00:50:40;71.03;;;31.60;;
17987;SDS011;9119;50.932;5.342;2023-04-29T00:53:07;71.23;;;30.83;;
17987;SDS011;9119;50.932;5.342;2023-04-29T00:55:39;73.90;;;32.77;;
17987;SDS011;9119;50.932;5.342;2023-04-29T00:58:06;73.07;;;32.73;;
17987;SDS011;9119;50.932;5.342;2023-04-29T01:00:33;65.63;;;31.90;;
17987;SDS011;9119;50.932;5.342;2023-04-29T01:02:59;70.70;;;32.40;;
17987;SDS011;9119;50.932;5.342;2023-04-29T01:05:26;61.20;;;28.10;;
17987;SDS011;9119;50.932;5.342;2023-04-29T01:10:26;84.43;;;36.50;;
17987;SDS011;9119;50.932;5.342;2023-04-29T01:13:06;105.27;;;44.17;;
17987;SDS011;9119;50.932;5.342;2023-04-29T01:15:46;66.20;;;31.73;;
17987;SDS011;9119;50.932;5.342;2023-04-29T01:18:25;70.53;;;31.43;;
17987;SDS011;9119;50.932;5.342;2023-04-29T01:21:00;66.67;;;28.83;;
17987;SDS011;9119;50.932;5.342;2023-04-29T01:23:27;65.70;;;29.07;;
17987;SDS011;9119;50.932;5.342;2023-04-29T01:25:53;70.13;;;29.47;;
17987;SDS011;9119;50.932;5.342;2023-04-29T01:33:40;64.27;;;28.07;;
17987;SDS011;9119;50.932;5.342;2023-04-29T01:39:24;79.83;;;32.73;;
17987;SDS011;9119;50.932;5.342;2023-04-29T01:44:40;66.23;;;27.17;;
17987;SDS011;9119;50.932;5.342;2023-04-29T01:47:07;68.03;;;27.67;;
17987;SDS011;9119;50.932;5.342;2023-04-29T01:49:37;72.43;;;29.20;;
17987;SDS011;9119;50.932;5.342;2023-04-29T01:52:04;76.83;;;31.53;;
17987;SDS011;9119;50.932;5.342;2023-04-29T01:54:31;95.20;;;39.53;;
17987;SDS011;9119;50.932;5.342;2023-04-29T01:57:00;66.90;;;28.83;;
17987;SDS011;9119;50.932;5.342;2023-04-29T01:59:26;78.37;;;29.87;;
17987;SDS011;9119;50.932;5.342;2023-04-29T02:01:52;71.00;;;30.23;;
17987;SDS011;9119;50.932;5.342;2023-04-29T02:04:17;65.90;;;27.60;;
17987;SDS011;9119;50.932;5.342;2023-04-29T02:06:43;68.80;;;28.13;;
17987;SDS011;9119;50.932;5.342;2023-04-29T02:09:08;65.50;;;27.67;;
17987;SDS011;9119;50.932;5.342;2023-04-29T02:11:35;77.07;;;30.87;;
17987;SDS011;9119;50.932;5.342;2023-04-29T02:14:00;67.67;;;27.97;;
17987;SDS011;9119;50.932;5.342;2023-04-29T02:16:26;73.63;;;29.40;;
17987;SDS011;9119;50.932;5.342;2023-04-29T02:18:52;76.63;;;29.57;;
17987;SDS011;9119;50.932;5.342;2023-04-29T02:21:17;77.80;;;29.27;;
17987;SDS011;9119;50.932;5.342;2023-04-29T02:23:43;77.40;;;30.63;;
17987;SDS011;9119;50.932;5.342;2023-04-29T02:26:08;69.03;;;28.27;;
17987;SDS011;9119;50.932;5.342;2023-04-29T02:28:34;66.67;;;29.00;;
17987;SDS011;9119;50.932;5.342;2023-04-29T02:31:00;70.20;;;30.20;;
17987;SDS011;9119;50.932;5.342;2023-04-29T02:33:26;68.93;;;29.27;;
17987;SDS011;9119;50.932;5.342;2023-04-29T02:35:52;81.97;;;32.57;;
17987;SDS011;9119;50.932;5.342;2023-04-29T02:38:17;76.20;;;31.00;;
17987;SDS011;9119;50.932;5.342;2023-04-29T02:40:43;72.23;;;29.77;;
17987;SDS011;9119;50.932;5.342;2023-04-29T02:43:10;84.50;;;32.73;;
17987;SDS011;9119;50.932;5.342;2023-04-29T02:45:36;84.47;;;31.70;;
17987;SDS011;9119;50.932;5.342;2023-04-29T02:48:03;78.17;;;32.27;;
17987;SDS011;9119;50.932;5.342;2023-04-29T02:50:29;77.40;;;31.43;;
17987;SDS011;9119;50.932;5.342;2023-04-29T02:52:54;86.97;;;35.37;;
17987;SDS011;9119;50.932;5.342;2023-04-29T02:55:21;83.40;;;35.90;;
17987;SDS011;9119;50.932;5.342;2023-04-29T02:57:47;87.73;;;35.90;;
17987;SDS011;9119;50.932;5.342;2023-04-29T03:00:13;92.70;;;38.97;;
17987;SDS011;9119;50.932;5.342;2023-04-29T03:02:38;104.40;;;42.30;;
17987;SDS011;9119;50.932;5.342;2023-04-29T03:05:04;109.17;;;43.57;;
17987;SDS011;9119;50.932;5.342;2023-04-29T03:07:30;106.90;;;41.47;;
17987;SDS011;9119;50.932;5.342;2023-04-29T03:09:56;119.27;;;43.93;;
17987;SDS011;9119;50.932;5.342;2023-04-29T03:12:22;111.97;;;44.23;;
17987;SDS011;9119;50.932;5.342;2023-04-29T03:14:48;107.07;;;43.37;;
17987;SDS011;9119;50.932;5.342;2023-04-29T03:17:14;113.63;;;44.43;;
17987;SDS011;9119;50.932;5.342;2023-04-29T03:19:40;110.77;;;45.30;;
17987;SDS011;9119;50.932;5.342;2023-04-29T03:22:05;109.83;;;44.03;;
17987;SDS011;9119;50.932;5.342;2023-04-29T03:24:34;112.60;;;44.80;;
17987;SDS011;9119;50.932;5.342;2023-04-29T03:27:00;113.10;;;43.20;;
17987;SDS011;9119;50.932;5.342;2023-04-29T03:29:25;116.33;;;45.07;;
17987;SDS011;9119;50.932;5.342;2023-04-29T03:31:52;114.83;;;45.53;;
17987;SDS011;9119;50.932;5.342;2023-04-29T03:34:18;120.40;;;48.50;;
17987;SDS011;9119;50.932;5.342;2023-04-29T03:36:44;128.20;;;49.20;;
17987;SDS011;9119;50.932;5.342;2023-04-29T03:39:10;116.83;;;46.77;;
17987;SDS011;9119;50.932;5.342;2023-04-29T03:41:38;123.80;;;48.03;;
17987;SDS011;9119;50.932;5.342;2023-04-29T03:44:04;127.87;;;48.90;;
17987;SDS011;9119;50.932;5.342;2023-04-29T03:46:30;107.07;;;43.87;;
17987;SDS011;9119;50.932;5.342;2023-04-29T03:48:56;108.63;;;42.77;;
17987;SDS011;9119;50.932;5.342;2023-04-29T03:51:24;106.10;;;44.07;;
17987;SDS011;9119;50.932;5.342;2023-04-29T03:53:50;110.83;;;45.20;;
17987;SDS011;9119;50.932;5.342;2023-04-29T03:56:21;102.63;;;42.00;;
17987;SDS011;9119;50.932;5.342;2023-04-29T03:58:49;103.63;;;41.27;;
17987;SDS011;9119;50.932;5.342;2023-04-29T04:01:17;104.37;;;41.10;;
17987;SDS011;9119;50.932;5.342;2023-04-29T04:03:43;103.60;;;40.70;;
17987;SDS011;9119;50.932;5.342;2023-04-29T04:06:09;97.93;;;40.93;;
17987;SDS011;9119;50.932;5.342;2023-04-29T04:08:35;95.50;;;39.43;;
17987;SDS011;9119;50.932;5.342;2023-04-29T04:11:01;94.17;;;38.80;;
17987;SDS011;9119;50.932;5.342;2023-04-29T04:13:30;97.33;;;38.17;;
17987;SDS011;9119;50.932;5.342;2023-04-29T04:15:56;87.83;;;37.90;;
17987;SDS011;9119;50.932;5.342;2023-04-29T04:18:22;83.33;;;35.37;;
17987;SDS011;9119;50.932;5.342;2023-04-29T04:20:48;82.53;;;33.17;;
17987;SDS011;9119;50.932;5.342;2023-04-29T04:23:14;76.73;;;32.77;;
17987;SDS011;9119;50.932;5.342;2023-04-29T04:25:46;81.40;;;32.70;;
17987;SDS011;9119;50.932;5.342;2023-04-29T04:28:12;82.37;;;32.57;;
17987;SDS011;9119;50.932;5.342;2023-04-29T04:30:38;87.87;;;34.53;;
17987;SDS011;9119;50.932;5.342;2023-04-29T04:33:04;81.43;;;33.13;;
17987;SDS011;9119;50.932;5.342;2023-04-29T04:35:30;80.43;;;32.20;;
17987;SDS011;9119;50.932;5.342;2023-04-29T04:37:56;91.40;;;35.27;;
17987;SDS011;9119;50.932;5.342;2023-04-29T04:40:22;88.33;;;32.23;;
17987;SDS011;9119;50.932;5.342;2023-04-29T04:42:48;92.77;;;34.43;;
17987;SDS011;9119;50.932;5.342;2023-04-29T04:45:14;98.20;;;35.23;;
17987;SDS011;9119;50.932;5.342;2023-04-29T04:47:40;95.67;;;36.47;;
17987;SDS011;9119;50.932;5.342;2023-04-29T04:50:06;101.83;;;36.83;;
17987;SDS011;9119;50.932;5.342;2023-04-29T04:52:33;102.03;;;36.67;;
17987;SDS011;9119;50.932;5.342;2023-04-29T04:54:58;91.37;;;34.47;;
17987;SDS011;9119;50.932;5.342;2023-04-29T04:57:24;94.50;;;35.77;;
17987;SDS011;9119;50.932;5.342;2023-04-29T04:59:50;101.23;;;35.27;;
17987;SDS011;9119;50.932;5.342;2023-04-29T05:02:16;91.97;;;36.30;;
17987;SDS011;9119;50.932;5.342;2023-04-29T05:04:41;89.23;;;36.17;;
17987;SDS011;9119;50.932;5.342;2023-04-29T05:07:07;101.37;;;37.30;;
17987;SDS011;9119;50.932;5.342;2023-04-29T05:09:33;91.07;;;37.27;;
17987;SDS011;9119;50.932;5.342;2023-04-29T05:11:59;91.57;;;36.70;;
17987;SDS011;9119;50.932;5.342;2023-04-29T05:14:25;101.07;;;36.60;;
17987;SDS011;9119;50.932;5.342;2023-04-29T05:16:51;90.70;;;34.33;;
17987;SDS011;9119;50.932;5.342;2023-04-29T05:19:18;100.00;;;34.87;;
17987;SDS011;9119;50.932;5.342;2023-04-29T05:21:43;95.17;;;36.07;;
17987;SDS011;9119;50.932;5.342;2023-04-29T05:24:09;99.07;;;35.63;;
17987;SDS011;9119;50.932;5.342;2023-04-29T05:26:35;99.43;;;38.53;;
17987;SDS011;9119;50.932;5.342;2023-04-29T05:29:01;90.33;;;35.43;;
17987;SDS011;9119;50.932;5.342;2023-04-29T05:31:26;92.20;;;36.13;;
17987;SDS011;9119;50.932;5.342;2023-04-29T05:33:52;95.53;;;37.80;;
17987;SDS011;9119;50.932;5.342;2023-04-29T05:36:18;102.90;;;39.13;;
17987;SDS011;9119;50.932;5.342;2023-04-29T05:38:44;83.70;;;32.10;;
17987;SDS011;9119;50.932;5.342;2023-04-29T05:41:10;84.10;;;34.37;;
17987;SDS011;9119;50.932;5.342;2023-04-29T05:43:36;67.23;;;29.30;;
17987;SDS011;9119;50.932;5.342;2023-04-29T05:46:01;77.83;;;30.43;;
17987;SDS011;9119;50.932;5.342;2023-04-29T05:48:31;64.53;;;29.60;;
17987;SDS011;9119;50.932;5.342;2023-04-29T05:50:56;73.90;;;29.17;;
17987;SDS011;9119;50.932;5.342;2023-04-29T05:53:22;73.10;;;29.60;;
17987;SDS011;9119;50.932;5.342;2023-04-29T05:55:48;76.43;;;29.43;;
17987;SDS011;9119;50.932;5.342;2023-04-29T05:58:15;65.33;;;28.93;;
17987;SDS011;9119;50.932;5.342;2023-04-29T06:00:41;75.67;;;26.33;;
17987;SDS011;9119;50.932;5.342;2023-04-29T06:03:08;75.90;;;30.33;;
17987;SDS011;9119;50.932;5.342;2023-04-29T06:05:34;66.90;;;25.43;;
17987;SDS011;9119;50.932;5.342;2023-04-29T06:08:01;74.87;;;30.53;;
17987;SDS011;9119;50.932;5.342;2023-04-29T06:10:27;72.90;;;28.73;;
17987;SDS011;9119;50.932;5.342;2023-04-29T06:12:53;73.63;;;29.23;;
17987;SDS011;9119;50.932;5.342;2023-04-29T06:15:19;80.57;;;29.70;;
17987;SDS011;9119;50.932;5.342;2023-04-29T06:17:45;90.87;;;32.03;;
17987;SDS011;9119;50.932;5.342;2023-04-29T06:20:11;77.13;;;31.60;;
17987;SDS011;9119;50.932;5.342;2023-04-29T06:22:37;79.80;;;28.47;;
17987;SDS011;9119;50.932;5.342;2023-04-29T06:25:02;78.97;;;31.50;;
17987;SDS011;9119;50.932;5.342;2023-04-29T06:27:28;69.53;;;28.67;;
17987;SDS011;9119;50.932;5.342;2023-04-29T06:29:54;75.40;;;28.50;;
17987;SDS011;9119;50.932;5.342;2023-04-29T06:32:20;67.80;;;28.70;;
17987;SDS011;9119;50.932;5.342;2023-04-29T06:34:46;64.10;;;27.73;;
17987;SDS011;9119;50.932;5.342;2023-04-29T06:37:11;72.17;;;29.30;;
17987;SDS011;9119;50.932;5.342;2023-04-29T06:39:37;64.57;;;27.60;;
17987;SDS011;9119;50.932;5.342;2023-04-29T06:42:03;64.97;;;25.63;;
17987;SDS011;9119;50.932;5.342;2023-04-29T06:44:28;68.77;;;27.40;;
17987;SDS011;9119;50.932;5.342;2023-04-29T06:46:55;71.73;;;29.00;;
17987;SDS011;9119;50.932;5.342;2023-04-29T06:49:20;73.10;;;28.73;;
17987;SDS011;9119;50.932;5.342;2023-04-29T06:51:47;83.10;;;30.40;;
17987;SDS011;9119;50.932;5.342;2023-04-29T06:54:12;78.17;;;29.80;;
17987;SDS011;9119;50.932;5.342;2023-04-29T06:56:38;72.70;;;29.40;;
17987;SDS011;9119;50.932;5.342;2023-04-29T06:59:04;71.83;;;30.27;;
17987;SDS011;9119;50.932;5.342;2023-04-29T07:01:30;78.10;;;29.40;;
17987;SDS011;9119;50.932;5.342;2023-04-29T07:03:55;77.63;;;30.27;;
17987;SDS011;9119;50.932;5.342;2023-04-29T07:06:21;80.90;;;29.07;;
17987;SDS011;9119;50.932;5.342;2023-04-29T07:08:47;81.47;;;29.73;;
17987;SDS011;9119;50.932;5.342;2023-04-29T07:11:12;73.03;;;32.70;;
17987;SDS011;9119;50.932;5.342;2023-04-29T07:13:38;79.57;;;31.83;;
17987;SDS011;9119;50.932;5.342;2023-04-29T07:16:04;81.27;;;30.23;;
17987;SDS011;9119;50.932;5.342;2023-04-29T07:18:38;73.83;;;29.57;;
17987;SDS011;9119;50.932;5.342;2023-04-29T07:21:03;70.67;;;29.93;;
17987;SDS011;9119;50.932;5.342;2023-04-29T07:23:29;71.17;;;28.90;;
17987;SDS011;9119;50.932;5.342;2023-04-29T07:25:55;69.70;;;30.47;;
17987;SDS011;9119;50.932;5.342;2023-04-29T07:28:21;75.13;;;30.30;;
17987;SDS011;9119;50.932;5.342;2023-04-29T07:30:47;78.63;;;30.60;;
17987;SDS011;9119;50.932;5.342;2023-04-29T07:33:13;65.00;;;27.70;;
17987;SDS011;9119;50.932;5.342;2023-04-29T07:35:38;64.50;;;28.17;;
17987;SDS011;9119;50.932;5.342;2023-04-29T07:38:07;70.43;;;28.93;;
17987;SDS011;9119;50.932;5.342;2023-04-29T07:40:33;67.07;;;26.80;;
17987;SDS011;9119;50.932;5.342;2023-04-29T07:42:58;59.13;;;26.87;;
17987;SDS011;9119;50.932;5.342;2023-04-29T07:45:28;54.50;;;24.97;;
17987;SDS011;9119;50.932;5.342;2023-04-29T07:47:54;61.23;;;25.47;;
17987;SDS011;9119;50.932;5.342;2023-04-29T07:50:20;57.87;;;24.17;;
17987;SDS011;9119;50.932;5.342;2023-04-29T07:52:46;51.27;;;24.00;;
17987;SDS011;9119;50.932;5.342;2023-04-29T07:55:12;57.97;;;24.43;;
17987;SDS011;9119;50.932;5.342;2023-04-29T07:57:38;44.80;;;21.10;;
17987;SDS011;9119;50.932;5.342;2023-04-29T08:00:04;53.20;;;22.33;;
17987;SDS011;9119;50.932;5.342;2023-04-29T08:02:30;50.67;;;21.50;;
17987;SDS011;9119;50.932;5.342;2023-04-29T08:04:56;43.53;;;21.07;;
17987;SDS011;9119;50.932;5.342;2023-04-29T08:07:22;40.20;;;20.47;;
17987;SDS011;9119;50.932;5.342;2023-04-29T08:09:47;49.80;;;21.40;;
17987;SDS011;9119;50.932;5.342;2023-04-29T08:12:13;46.83;;;20.53;;
17987;SDS011;9119;50.932;5.342;2023-04-29T08:14:39;49.27;;;22.57;;
17987;SDS011;9119;50.932;5.342;2023-04-29T08:17:04;46.93;;;21.50;;
17987;SDS011;9119;50.932;5.342;2023-04-29T08:19:31;55.83;;;22.97;;
17987;SDS011;9119;50.932;5.342;2023-04-29T08:21:57;47.37;;;21.93;;
17987;SDS011;9119;50.932;5.342;2023-04-29T08:24:22;49.33;;;21.17;;
17987;SDS011;9119;50.932;5.342;2023-04-29T08:26:49;47.37;;;22.07;;
17987;SDS011;9119;50.932;5.342;2023-04-29T08:29:15;49.57;;;21.27;;
17987;SDS011;9119;50.932;5.342;2023-04-29T08:31:41;50.40;;;21.13;;
17987;SDS011;9119;50.932;5.342;2023-04-29T08:34:07;46.97;;;21.30;;
17987;SDS011;9119;50.932;5.342;2023-04-29T08:36:32;55.03;;;22.80;;
17987;SDS011;9119;50.932;5.342;2023-04-29T08:38:58;52.40;;;21.83;;
17987;SDS011;9119;50.932;5.342;2023-04-29T08:41:24;43.60;;;20.67;;
17987;SDS011;9119;50.932;5.342;2023-04-29T08:43:49;45.27;;;20.23;;
17987;SDS011;9119;50.932;5.342;2023-04-29T08:46:15;49.17;;;22.13;;
17987;SDS011;9119;50.932;5.342;2023-04-29T08:48:42;51.80;;;22.00;;
17987;SDS011;9119;50.932;5.342;2023-04-29T08:51:10;55.20;;;22.33;;
17987;SDS011;9119;50.932;5.342;2023-04-29T08:53:37;46.97;;;22.20;;
17987;SDS011;9119;50.932;5.342;2023-04-29T08:56:08;48.17;;;22.07;;
17987;SDS011;9119;50.932;5.342;2023-04-29T08:58:46;44.53;;;21.73;;
17987;SDS011;9119;50.932;5.342;2023-04-29T09:01:18;46.90;;;21.97;;
17987;SDS011;9119;50.932;5.342;2023-04-29T09:06:38;45.40;;;20.87;;
17987;SDS011;9119;50.932;5.342;2023-04-29T09:09:04;47.17;;;23.07;;
17987;SDS011;9119;50.932;5.342;2023-04-29T09:11:31;44.80;;;21.73;;
17987;SDS011;9119;50.932;5.342;2023-04-29T09:13:58;47.43;;;23.70;;
17987;SDS011;9119;50.932;5.342;2023-04-29T09:16:25;50.67;;;23.67;;
17987;SDS011;9119;50.932;5.342;2023-04-29T09:18:52;46.83;;;22.20;;
17987;SDS011;9119;50.932;5.342;2023-04-29T09:21:23;48.53;;;21.53;;
17987;SDS011;9119;50.932;5.342;2023-04-29T09:24:00;43.23;;;20.93;;
17987;SDS011;9119;50.932;5.342;2023-04-29T09:26:32;42.87;;;23.20;;
17987;SDS011;9119;50.932;5.342;2023-04-29T09:29:08;38.40;;;20.37;;
17987;SDS011;9119;50.932;5.342;2023-04-29T09:31:42;51.73;;;21.57;;
17987;SDS011;9119;50.932;5.342;2023-04-29T09:34:08;40.60;;;20.23;;
17987;SDS011;9119;50.932;5.342;2023-04-29T09:36:42;41.47;;;20.63;;
17987;SDS011;9119;50.932;5.342;2023-04-29T09:39:22;39.87;;;18.90;;
17987;SDS011;9119;50.932;5.342;2023-04-29T09:44:18;35.10;;;17.17;;
17987;SDS011;9119;50.932;5.342;2023-04-29T09:49:30;34.77;;;17.03;;
17987;SDS011;9119;50.932;5.342;2023-04-29T09:52:00;38.43;;;18.30;;
17987;SDS011;9119;50.932;5.342;2023-04-29T09:54:28;34.27;;;17.80;;
17987;SDS011;9119;50.932;5.342;2023-04-29T09:56:56;34.70;;;18.63;;
17987;SDS011;9119;50.932;5.342;2023-04-29T09:59:23;41.17;;;18.10;;
17987;SDS011;9119;50.932;5.342;2023-04-29T10:01:51;32.07;;;16.40;;
17987;SDS011;9119;50.932;5.342;2023-04-29T10:04:18;33.37;;;17.00;;
17987;SDS011;9119;50.932;5.342;2023-04-29T10:06:50;33.00;;;17.73;;
17987;SDS011;9119;50.932;5.342;2023-04-29T10:09:18;31.30;;;16.33;;
17987;SDS011;9119;50.932;5.342;2023-04-29T10:11:45;29.60;;;16.17;;
17987;SDS011;9119;50.932;5.342;2023-04-29T10:14:23;34.37;;;16.50;;
17987;SDS011;9119;50.932;5.342;2023-04-29T10:17:10;31.50;;;15.77;;
17987;SDS011;9119;50.932;5.342;2023-04-29T10:19:46;27.57;;;14.67;;
17987;SDS011;9119;50.932;5.342;2023-04-29T10:22:25;24.97;;;13.13;;
17987;SDS011;9119;50.932;5.342;2023-04-29T10:24:57;36.23;;;14.77;;
17987;SDS011;9119;50.932;5.342;2023-04-29T10:27:26;27.97;;;13.40;;
17987;SDS011;9119;50.932;5.342;2023-04-29T10:29:53;29.97;;;14.30;;
17987;SDS011;9119;50.932;5.342;2023-04-29T10:32:21;28.80;;;13.57;;
17987;SDS011;9119;50.932;5.342;2023-04-29T10:34:47;24.63;;;13.53;;
17987;SDS011;9119;50.932;5.342;2023-04-29T10:37:16;30.93;;;14.40;;
17987;SDS011;9119;50.932;5.342;2023-04-29T10:39:45;28.37;;;13.57;;
17987;SDS011;9119;50.932;5.342;2023-04-29T10:42:49;25.33;;;13.03;;
17987;SDS011;9119;50.932;5.342;2023-04-29T10:45:28;30.63;;;13.90;;
17987;SDS011;9119;50.932;5.342;2023-04-29T10:53:04;28.47;;;15.30;;
17987;SDS011;9119;50.932;5.342;2023-04-29T10:55:29;35.77;;;15.33;;
17987;SDS011;9119;50.932;5.342;2023-04-29T10:57:56;29.23;;;15.97;;
17987;SDS011;9119;50.932;5.342;2023-04-29T11:00:25;32.13;;;15.73;;
17987;SDS011;9119;50.932;5.342;2023-04-29T11:02:54;32.23;;;15.07;;
17987;SDS011;9119;50.932;5.342;2023-04-29T11:05:31;31.23;;;15.63;;
17987;SDS011;9119;50.932;5.342;2023-04-29T11:08:10;31.87;;;16.10;;
17987;SDS011;9119;50.932;5.342;2023-04-29T11:10:49;29.60;;;15.43;;
17987;SDS011;9119;50.932;5.342;2023-04-29T11:15:51;25.43;;;14.87;;
17987;SDS011;9119;50.932;5.342;2023-04-29T11:18:17;29.90;;;15.47;;
17987;SDS011;9119;50.932;5.342;2023-04-29T11:21:10;32.80;;;15.83;;
17987;SDS011;9119;50.932;5.342;2023-04-29T11:23:28;27.63;;;15.60;;
17987;SDS011;9119;50.932;5.342;2023-04-29T11:25:55;27.40;;;14.43;;
17987;SDS011;9119;50.932;5.342;2023-04-29T11:28:21;30.00;;;15.23;;
17987;SDS011;9119;50.932;5.342;2023-04-29T11:30:51;30.40;;;14.80;;
17987;SDS011;9119;50.932;5.342;2023-04-29T11:33:21;27.63;;;15.00;;
17987;SDS011;9119;50.932;5.342;2023-04-29T11:35:47;29.97;;;15.00;;
17987;SDS011;9119;50.932;5.342;2023-04-29T11:38:12;29.90;;;15.53;;
17987;SDS011;9119;50.932;5.342;2023-04-29T11:40:41;31.93;;;15.67;;
17987;SDS011;9119;50.932;5.342;2023-04-29T11:43:17;28.47;;;16.43;;
17987;SDS011;9119;50.932;5.342;2023-04-29T11:45:46;28.93;;;15.17;;
17987;SDS011;9119;50.932;5.342;2023-04-29T11:48:16;30.23;;;15.43;;
17987;SDS011;9119;50.932;5.342;2023-04-29T11:50:50;30.37;;;16.00;;
17987;SDS011;9119;50.932;5.342;2023-04-29T11:53:19;24.20;;;14.10;;
17987;SDS011;9119;50.932;5.342;2023-04-29T11:55:46;26.33;;;14.23;;
17987;SDS011;9119;50.932;5.342;2023-04-29T11:58:15;27.87;;;14.83;;
17987;SDS011;9119;50.932;5.342;2023-04-29T12:00:42;25.97;;;14.57;;
17987;SDS011;9119;50.932;5.342;2023-04-29T12:03:17;28.70;;;13.73;;
17987;SDS011;9119;50.932;5.342;2023-04-29T12:05:51;30.50;;;14.07;;
17987;SDS011;9119;50.932;5.342;2023-04-29T12:08:23;22.90;;;13.03;;
17987;SDS011;9119;50.932;5.342;2023-04-29T12:10:51;23.13;;;12.90;;
17987;SDS011;9119;50.932;5.342;2023-04-29T12:13:18;26.70;;;12.97;;
17987;SDS011;9119;50.932;5.342;2023-04-29T12:15:47;28.43;;;13.90;;
17987;SDS011;9119;50.932;5.342;2023-04-29T12:18:15;21.53;;;12.23;;
17987;SDS011;9119;50.932;5.342;2023-04-29T12:20:42;25.63;;;13.13;;
17987;SDS011;9119;50.932;5.342;2023-04-29T12:25:38;22.63;;;12.03;;
17987;SDS011;9119;50.932;5.342;2023-04-29T12:28:10;22.77;;;12.90;;
17987;SDS011;9119;50.932;5.342;2023-04-29T12:30:37;23.93;;;13.07;;
17987;SDS011;9119;50.932;5.342;2023-04-29T12:33:02;30.47;;;11.87;;
17987;SDS011;9119;50.932;5.342;2023-04-29T12:35:28;24.70;;;14.13;;
17987;SDS011;9119;50.932;5.342;2023-04-29T12:37:56;29.37;;;13.90;;
17987;SDS011;9119;50.932;5.342;2023-04-29T12:40:23;26.63;;;13.27;;
17987;SDS011;9119;50.932;5.342;2023-04-29T12:42:49;27.57;;;14.53;;
17987;SDS011;9119;50.932;5.342;2023-04-29T12:45:30;30.43;;;14.73;;
17987;SDS011;9119;50.932;5.342;2023-04-29T12:47:57;29.93;;;14.17;;
17987;SDS011;9119;50.932;5.342;2023-04-29T12:50:57;25.40;;;13.10;;
17987;SDS011;9119;50.932;5.342;2023-04-29T12:53:16;30.10;;;14.23;;
17987;SDS011;9119;50.932;5.342;2023-04-29T12:55:42;25.33;;;14.00;;
17987;SDS011;9119;50.932;5.342;2023-04-29T12:58:07;26.80;;;14.97;;
17987;SDS011;9119;50.932;5.342;2023-04-29T13:00:33;25.53;;;13.50;;
17987;SDS011;9119;50.932;5.342;2023-04-29T13:03:01;29.33;;;15.23;;
17987;SDS011;9119;50.932;5.342;2023-04-29T13:05:28;24.13;;;13.03;;
17987;SDS011;9119;50.932;5.342;2023-04-29T13:07:53;24.87;;;14.20;;
17987;SDS011;9119;50.932;5.342;2023-04-29T13:10:20;28.60;;;13.30;;
17987;SDS011;9119;50.932;5.342;2023-04-29T13:12:46;23.93;;;12.77;;
17987;SDS011;9119;50.932;5.342;2023-04-29T13:15:12;25.53;;;12.67;;
17987;SDS011;9119;50.932;5.342;2023-04-29T13:17:38;20.13;;;11.57;;
17987;SDS011;9119;50.932;5.342;2023-04-29T13:20:04;19.40;;;11.00;;
17987;SDS011;9119;50.932;5.342;2023-04-29T13:22:30;22.70;;;11.90;;
17987;SDS011;9119;50.932;5.342;2023-04-29T13:24:56;21.17;;;12.07;;
17987;SDS011;9119;50.932;5.342;2023-04-29T13:27:22;20.23;;;11.27;;
17987;SDS011;9119;50.932;5.342;2023-04-29T13:29:48;25.43;;;12.63;;
17987;SDS011;9119;50.932;5.342;2023-04-29T13:32:14;21.50;;;11.17;;
17987;SDS011;9119;50.932;5.342;2023-04-29T13:34:40;23.00;;;11.63;;
17987;SDS011;9119;50.932;5.342;2023-04-29T13:37:07;23.17;;;12.43;;
17987;SDS011;9119;50.932;5.342;2023-04-29T13:39:33;19.43;;;12.27;;
17987;SDS011;9119;50.932;5.342;2023-04-29T13:42:00;23.70;;;12.27;;
17987;SDS011;9119;50.932;5.342;2023-04-29T13:44:25;23.23;;;12.30;;
17987;SDS011;9119;50.932;5.342;2023-04-29T13:46:51;24.33;;;11.40;;
17987;SDS011;9119;50.932;5.342;2023-04-29T13:49:17;24.10;;;11.43;;
17987;SDS011;9119;50.932;5.342;2023-04-29T13:51:43;19.00;;;10.53;;
17987;SDS011;9119;50.932;5.342;2023-04-29T13:54:08;19.70;;;11.27;;
17987;SDS011;9119;50.932;5.342;2023-04-29T13:56:34;19.30;;;11.57;;
17987;SDS011;9119;50.932;5.342;2023-04-29T13:59:00;24.03;;;12.37;;
17987;SDS011;9119;50.932;5.342;2023-04-29T14:01:26;19.20;;;11.63;;
17987;SDS011;9119;50.932;5.342;2023-04-29T14:03:52;23.97;;;11.83;;
17987;SDS011;9119;50.932;5.342;2023-04-29T14:06:17;22.30;;;12.07;;
17987;SDS011;9119;50.932;5.342;2023-04-29T14:08:43;25.43;;;13.00;;
17987;SDS011;9119;50.932;5.342;2023-04-29T14:11:09;24.37;;;12.17;;
17987;SDS011;9119;50.932;5.342;2023-04-29T14:13:35;21.37;;;11.13;;
17987;SDS011;9119;50.932;5.342;2023-04-29T14:16:00;23.10;;;11.53;;
17987;SDS011;9119;50.932;5.342;2023-04-29T14:18:29;26.83;;;12.73;;
17987;SDS011;9119;50.932;5.342;2023-04-29T14:20:55;17.73;;;11.10;;
17987;SDS011;9119;50.932;5.342;2023-04-29T14:23:21;21.30;;;11.83;;
17987;SDS011;9119;50.932;5.342;2023-04-29T14:25:47;25.53;;;10.87;;
17987;SDS011;9119;50.932;5.342;2023-04-29T14:28:13;23.67;;;11.50;;
17987;SDS011;9119;50.932;5.342;2023-04-29T14:30:39;22.30;;;11.60;;
17987;SDS011;9119;50.932;5.342;2023-04-29T14:33:05;21.10;;;11.37;;
17987;SDS011;9119;50.932;5.342;2023-04-29T14:35:32;23.33;;;10.83;;
17987;SDS011;9119;50.932;5.342;2023-04-29T14:37:57;22.20;;;11.30;;
17987;SDS011;9119;50.932;5.342;2023-04-29T14:40:23;24.47;;;12.33;;
17987;SDS011;9119;50.932;5.342;2023-04-29T14:42:49;18.90;;;10.83;;
17987;SDS011;9119;50.932;5.342;2023-04-29T14:45:15;25.13;;;11.13;;
17987;SDS011;9119;50.932;5.342;2023-04-29T14:47:41;19.47;;;10.33;;
17987;SDS011;9119;50.932;5.342;2023-04-29T14:50:07;20.07;;;11.33;;
17987;SDS011;9119;50.932;5.342;2023-04-29T14:52:34;18.13;;;9.87;;
17987;SDS011;9119;50.932;5.342;2023-04-29T14:55:00;16.13;;;9.77;;
17987;SDS011;9119;50.932;5.342;2023-04-29T14:57:26;19.33;;;10.07;;
17987;SDS011;9119;50.932;5.342;2023-04-29T14:59:53;17.50;;;9.47;;
17987;SDS011;9119;50.932;5.342;2023-04-29T15:02:20;21.37;;;10.07;;
17987;SDS011;9119;50.932;5.342;2023-04-29T15:04:46;19.43;;;9.60;;
17987;SDS011;9119;50.932;5.342;2023-04-29T15:07:12;18.67;;;8.93;;